Time;durP1;ratioP1;P1;durP2;ratioP2;P2;SDS_P1;SDS_P2;PMS_P1;PMS_P2;Temp;Humidity;BMP_temperature;BMP_pressure;BME280_temperature;BME280_humidity;BME280_pressure;Samples;Min_cycle;Max_cycle;Signal;HPM_P1;HPM_P2
2022/11/25 00:01:38;;;;;;;1.33;0.40;;;8.30;96.10;;;;;;5018381;28;20136;-84
2022/11/25 00:04:05;;;;;;;2.22;0.28;;;8.20;96.40;;;;;;5003126;28;20098;-87
2022/11/25 00:06:37;;;;;;;4.40;0.80;;;8.30;96.20;;;;;;5036298;28;20052;-88
2022/11/25 00:09:10;;;;;;;3.45;0.57;;;8.30;96.10;;;;;;5035390;28;20045;-87
2022/11/25 00:11:40;;;;;;;2.45;0.35;;;8.20;96.10;;;;;;5035602;28;20049;-87
2022/11/25 00:14:12;;;;;;;3.08;0.50;;;8.10;96.10;;;;;;5035641;28;20060;-87
2022/11/25 00:16:39;;;;;;;1.30;0.30;;;8.10;96.20;;;;;;5038020;28;20140;-87
2022/11/25 00:19:14;;;;;;;2.08;0.40;;;8.00;96.20;;;;;;5036501;28;20045;-86
2022/11/25 00:21:41;;;;;;;1.73;0.30;;;8.00;96.30;;;;;;5035493;28;20124;-87
2022/11/25 00:24:11;;;;;;;3.53;0.68;;;8.00;96.30;;;;;;5035406;28;20562;-86
2022/11/25 00:26:38;;;;;;;4.93;0.80;;;8.00;96.30;;;;;;5024056;28;20049;-86
2022/11/25 00:29:08;;;;;;;3.05;0.50;;;7.90;96.30;;;;;;5015142;28;20132;-86
2022/11/25 00:31:37;;;;;;;2.38;0.70;;;7.90;96.30;;;;;;5035205;28;20386;-86
2022/11/25 00:34:06;;;;;;;1.40;0.35;;;8.00;96.40;;;;;;5035192;28;20045;-86
2022/11/25 00:36:35;;;;;;;2.17;0.40;;;7.90;96.40;;;;;;5023464;28;20045;-86
2022/11/25 00:39:11;;;;;;;2.47;0.40;;;7.90;96.40;;;;;;5035415;28;20041;-86
2022/11/25 00:44:39;;;;;;;1.98;0.30;;;8.00;96.50;;;;;;5031881;28;20136;-86
2022/11/25 00:47:19;;;;;;;1.75;0.47;;;8.00;96.50;;;;;;5023478;28;20051;-86
2022/11/25 00:49:48;;;;;;;1.65;0.40;;;8.00;96.50;;;;;;5038081;28;20104;-86
2022/11/25 00:52:18;;;;;;;1.45;0.50;;;8.00;96.50;;;;;;5037571;28;20406;-86
2022/11/25 00:54:48;;;;;;;1.35;0.20;;;8.00;96.50;;;;;;5029622;28;20045;-85
2022/11/25 00:57:17;;;;;;;2.97;1.00;;;7.90;96.50;;;;;;5032629;28;20067;-86
2022/11/25 00:59:45;;;;;;;0.73;0.30;;;8.00;96.50;;;;;;5038018;28;20044;-86
2022/11/25 01:02:13;;;;;;;1.77;0.30;;;8.00;96.50;;;;;;5055007;28;20399;-86
2022/11/25 01:04:43;;;;;;;1.27;0.50;;;8.00;96.50;;;;;;5054732;28;20072;-87
2022/11/25 01:07:13;;;;;;;1.83;0.40;;;8.00;96.50;;;;;;5038573;28;20056;-86
2022/11/25 01:09:41;;;;;;;2.13;0.40;;;8.00;96.50;;;;;;5038110;28;20499;-86
2022/11/25 01:12:10;;;;;;;2.20;0.40;;;8.00;96.80;;;;;;5038658;28;20052;-88
2022/11/25 01:14:38;;;;;;;2.88;0.35;;;8.00;96.60;;;;;;5022225;28;20064;-87
2022/11/25 01:17:05;;;;;;;2.80;0.40;;;8.00;96.70;;;;;;5035128;28;20136;-86
2022/11/25 01:19:33;;;;;;;1.45;0.40;;;8.00;96.60;;;;;;5034600;28;20048;-87
2022/11/25 01:22:00;;;;;;;1.77;0.32;;;8.00;96.60;;;;;;5038323;28;20136;-87
2022/11/25 01:24:27;;;;;;;1.60;0.30;;;8.10;96.60;;;;;;5038190;28;20051;-87
2022/11/25 01:26:57;;;;;;;1.95;0.30;;;8.10;96.60;;;;;;5051809;28;20057;-87
2022/11/25 01:29:24;;;;;;;2.55;0.40;;;8.10;96.60;;;;;;5038204;28;20045;-86
2022/11/25 01:31:55;;;;;;;2.92;0.60;;;8.10;96.60;;;;;;5023912;28;20049;-88
2022/11/25 01:34:24;;;;;;;1.40;0.20;;;8.10;96.90;;;;;;5038372;28;20502;-88
2022/11/25 01:36:52;;;;;;;4.70;0.30;;;8.10;96.60;;;;;;5054830;28;20037;-88
2022/11/25 01:39:24;;;;;;;2.42;0.40;;;8.10;96.60;;;;;;5038473;28;20044;-88
2022/11/25 01:41:58;;;;;;;1.52;0.40;;;8.10;96.60;;;;;;5027668;28;20049;-88
2022/11/25 01:44:30;;;;;;;2.70;0.45;;;8.20;96.70;;;;;;5049272;28;20045;-88
2022/11/25 01:47:03;;;;;;;0.85;0.28;;;8.20;96.60;;;;;;5040659;28;20071;-88
2022/11/25 01:49:43;;;;;;;1.70;0.45;;;8.20;96.60;;;;;;5037253;28;20052;-88
2022/11/25 01:52:19;;;;;;;1.63;0.50;;;8.20;96.60;;;;;;5037185;28;20453;-87
2022/11/25 01:54:53;;;;;;;2.33;1.15;;;8.20;96.60;;;;;;5033080;28;20053;-86
2022/11/25 01:57:26;;;;;;;1.80;0.30;;;8.20;96.60;;;;;;5038009;28;20102;-88
2022/11/25 01:59:58;;;;;;;2.58;0.45;;;8.20;96.70;;;;;;5038480;28;20049;-88
2022/11/25 02:02:27;;;;;;;1.73;0.50;;;8.20;96.70;;;;;;5037875;28;20144;-88
2022/11/25 02:04:58;;;;;;;4.32;0.50;;;8.20;96.70;;;;;;5054011;28;20068;-88
2022/11/25 02:07:36;;;;;;;2.88;0.40;;;8.20;96.70;;;;;;5038029;28;20103;-88
2022/11/25 02:10:10;;;;;;;2.88;0.75;;;8.20;96.70;;;;;;5035662;28;20063;-89
2022/11/25 02:12:44;;;;;;;1.95;0.63;;;8.20;96.70;;;;;;5033974;28;20073;-89
2022/11/25 02:15:13;;;;;;;3.90;0.30;;;8.20;96.70;;;;;;5053254;28;20049;-87
2022/11/25 02:17:41;;;;;;;4.15;0.50;;;8.20;96.70;;;;;;5037243;28;20059;-89
2022/11/25 02:20:14;;;;;;;1.67;0.40;;;8.20;96.70;;;;;;5037505;28;20045;-88
2022/11/25 02:22:47;;;;;;;1.65;0.25;;;8.20;96.70;;;;;;5037794;28;20498;-88
2022/11/25 02:25:18;;;;;;;1.38;0.40;;;8.30;96.80;;;;;;5028446;28;20053;-89
2022/11/25 02:27:49;;;;;;;4.03;0.40;;;8.30;96.80;;;;;;5033199;28;20414;-88
2022/11/25 02:30:16;;;;;;;0.98;0.30;;;8.30;96.80;;;;;;5054276;28;20053;-88
2022/11/25 02:32:45;;;;;;;1.02;0.22;;;8.30;96.80;;;;;;5021776;28;20620;-88
2022/11/25 02:35:35;;;;;;;3.78;0.75;;;8.30;96.80;;;;;;5037717;28;20137;-89
2022/11/25 02:38:37;;;;;;;2.05;0.40;;;8.30;96.70;;;;;;5037484;28;20041;-88
2022/11/25 02:41:15;;;;;;;1.85;0.40;;;8.30;96.70;;;;;;5047095;28;20407;-85
2022/11/25 02:43:45;;;;;;;4.10;0.43;;;8.30;96.80;;;;;;5036417;28;20498;-86
2022/11/25 02:46:24;;;;;;;2.00;0.45;;;8.30;96.80;;;;;;5036546;28;20045;-86
2022/11/25 02:49:00;;;;;;;3.50;0.60;;;8.40;96.80;;;;;;5042275;28;20102;-85
2022/11/25 02:51:40;;;;;;;1.90;0.40;;;8.40;96.80;;;;;;5045890;28;20400;-86
2022/11/25 02:54:08;;;;;;;2.28;0.40;;;8.40;96.80;;;;;;5022224;28;20047;-86
2022/11/25 02:56:42;;;;;;;1.65;0.30;;;8.40;96.80;;;;;;5036398;28;20045;-85
2022/11/25 02:59:10;;;;;;;3.65;0.30;;;8.40;96.80;;;;;;5035255;28;20052;-85
2022/11/25 03:01:38;;;;;;;3.10;0.45;;;8.40;96.80;;;;;;5035933;28;20502;-85
2022/11/25 03:04:13;;;;;;;2.00;0.38;;;8.40;96.80;;;;;;5034793;28;20486;-86
2022/11/25 03:06:40;;;;;;;3.00;0.57;;;8.40;96.80;;;;;;5035499;28;20132;-86
2022/11/25 03:09:08;;;;;;;4.18;0.30;;;8.40;96.80;;;;;;5035833;28;20056;-85
2022/11/25 03:14:23;;;;;;;2.10;0.43;;;8.40;96.80;;;;;;5051510;28;20045;-85
2022/11/25 03:16:52;;;;;;;1.75;0.32;;;8.40;96.80;;;;;;5035591;28;20052;-86
2022/11/25 03:19:19;;;;;;;2.20;0.28;;;8.40;96.90;;;;;;5051244;28;20095;-86
2022/11/25 03:21:46;;;;;;;2.53;0.30;;;8.40;96.90;;;;;;5033222;28;20075;-86
2022/11/25 03:24:14;;;;;;;1.05;0.20;;;8.50;96.90;;;;;;5035677;28;20052;-86
2022/11/25 03:26:41;;;;;;;1.58;0.20;;;8.50;96.90;;;;;;5035416;28;20498;-86
2022/11/25 03:29:09;;;;;;;1.42;0.30;;;8.50;96.90;;;;;;5035665;28;20131;-86
2022/11/25 03:31:36;;;;;;;1.48;0.40;;;8.50;96.90;;;;;;5034972;28;20045;-87
2022/11/25 03:34:08;;;;;;;0.85;0.30;;;8.50;96.90;;;;;;5036332;28;20049;-85
2022/11/25 03:36:38;;;;;;;0.50;0.20;;;8.50;97.00;;;;;;5019685;28;20048;-85
2022/11/25 03:39:07;;;;;;;2.80;0.40;;;8.50;97.00;;;;;;5027998;28;20095;-85
2022/11/25 03:41:41;;;;;;;2.10;0.75;;;8.50;97.00;;;;;;5035592;28;20044;-86
2022/11/25 03:44:08;;;;;;;0.93;0.20;;;8.50;96.90;;;;;;5037009;28;20045;-86
2022/11/25 03:46:37;;;;;;;1.17;0.22;;;8.50;97.00;;;;;;5035740;28;20388;-86
2022/11/25 03:49:06;;;;;;;1.83;0.35;;;8.50;97.00;;;;;;5028823;28;20045;-86
2022/11/25 03:51:33;;;;;;;1.48;0.20;;;8.50;97.00;;;;;;5019185;28;20114;-86
2022/11/25 03:54:02;;;;;;;2.85;0.22;;;8.50;97.00;;;;;;5035338;28;20065;-85
2022/11/25 03:56:38;;;;;;;2.28;0.20;;;8.50;97.00;;;;;;5041182;28;20037;-86
2022/11/25 03:59:05;;;;;;;2.30;0.40;;;8.50;97.00;;;;;;5035375;28;20128;-87
2022/11/25 04:01:32;;;;;;;2.03;0.40;;;8.60;97.00;;;;;;5019842;28;20091;-87
2022/11/25 04:04:00;;;;;;;1.23;0.40;;;8.60;97.00;;;;;;5034940;28;20071;-87
2022/11/25 04:06:27;;;;;;;0.75;0.20;;;8.50;97.00;;;;;;5035447;28;20083;-86
2022/11/25 04:08:58;;;;;;;1.17;0.20;;;8.60;97.10;;;;;;5052674;28;20090;-87
2022/11/25 04:12:45;;;;;;;0.75;0.20;;;8.50;97.00;;;;;;5039213;28;20506;-87
2022/11/25 04:14:13;;;;;;;2.00;0.47;;;8.60;97.10;;;;;;5036388;28;20090;-86
2022/11/25 04:16:40;;;;;;;2.08;0.60;;;8.50;97.10;;;;;;5039543;28;20048;-86
2022/11/25 04:19:08;;;;;;;1.60;0.38;;;8.50;97.10;;;;;;5055351;28;20048;-86
2022/11/25 04:21:35;;;;;;;1.98;0.70;;;8.50;97.10;;;;;;5039560;28;20044;-86
2022/11/25 04:24:05;;;;;;;2.58;0.45;;;8.50;97.10;;;;;;5036199;28;20037;-87
2022/11/25 04:26:36;;;;;;;1.58;0.40;;;8.50;97.10;;;;;;5036646;28;20055;-86
2022/11/25 04:29:03;;;;;;;1.85;0.20;;;8.50;97.10;;;;;;5053391;28;20137;-86
2022/11/25 04:31:31;;;;;;;0.73;0.20;;;8.50;97.20;;;;;;5022754;28;20041;-87
2022/11/25 04:33:58;;;;;;;1.00;0.30;;;8.50;97.20;;;;;;5037473;28;20065;-86
2022/11/25 04:36:27;;;;;;;0.63;0.10;;;8.60;97.20;;;;;;5022839;28;20167;-86
2022/11/25 04:38:54;;;;;;;0.30;0.20;;;8.50;97.20;;;;;;5022478;28;20438;-85
2022/11/25 04:41:21;;;;;;;0.60;0.15;;;8.60;97.20;;;;;;5039127;28;20056;-86
2022/11/25 04:43:48;;;;;;;0.88;0.25;;;8.60;97.30;;;;;;5022270;28;20102;-85
2022/11/25 04:46:22;;;;;;;2.08;0.47;;;8.50;97.30;;;;;;5022247;28;20045;-86
2022/11/25 04:48:50;;;;;;;1.80;0.30;;;8.60;97.30;;;;;;5055030;28;20049;-86
2022/11/25 04:51:21;;;;;;;3.28;0.50;;;8.60;97.30;;;;;;5038241;28;20037;-86
2022/11/25 04:53:55;;;;;;;2.53;0.40;;;8.60;97.30;;;;;;5038386;28;20040;-85
2022/11/25 04:56:24;;;;;;;0.98;0.30;;;8.60;97.30;;;;;;5038773;28;20414;-86
2022/11/25 05:01:44;;;;;;;0.93;0.25;;;8.60;97.30;;;;;;5037949;28;20041;-86
2022/11/25 05:04:28;;;;;;;3.47;0.40;;;8.60;97.30;;;;;;5035477;28;20377;-87
2022/11/25 05:06:55;;;;;;;1.00;0.50;;;8.60;97.30;;;;;;5025888;28;20041;-87
2022/11/25 05:09:23;;;;;;;0.75;0.30;;;8.60;97.30;;;;;;5055182;28;20059;-86
2022/11/25 05:12:06;;;;;;;0.80;0.20;;;8.60;97.30;;;;;;5040187;28;20037;-87
2022/11/25 05:14:36;;;;;;;3.65;0.20;;;8.60;97.30;;;;;;5038339;28;20450;-87
2022/11/25 05:17:05;;;;;;;1.02;0.15;;;8.60;97.30;;;;;;5037435;28;20044;-87
2022/11/25 05:19:35;;;;;;;0.68;0.20;;;8.60;97.30;;;;;;5039390;28;20041;-87
2022/11/25 05:22:13;;;;;;;1.92;0.30;;;8.70;97.30;;;;;;5054227;28;20084;-87
2022/11/25 05:24:41;;;;;;;0.70;0.20;;;8.70;97.30;;;;;;5038588;28;20076;-87
2022/11/25 05:27:09;;;;;;;1.20;0.20;;;8.70;97.30;;;;;;5038331;28;20045;-87
2022/11/25 05:29:37;;;;;;;0.77;0.30;;;8.70;97.30;;;;;;5054734;28;20141;-87
2022/11/25 05:32:07;;;;;;;0.70;0.22;;;8.70;97.30;;;;;;5038777;28;20072;-87
2022/11/25 05:34:35;;;;;;;2.65;0.17;;;8.70;97.30;;;;;;5038412;28;20041;-87
2022/11/25 05:37:03;;;;;;;1.90;0.32;;;8.70;97.30;;;;;;5038411;28;20048;-88
2022/11/25 05:39:33;;;;;;;0.55;0.30;;;8.70;97.30;;;;;;5038496;28;20045;-87
2022/11/25 05:42:18;;;;;;;1.05;0.22;;;8.70;97.30;;;;;;5034994;28;20041;-87
2022/11/25 05:44:47;;;;;;;0.50;0.20;;;8.70;97.40;;;;;;5002667;28;20503;-88
2022/11/25 05:47:19;;;;;;;1.30;0.28;;;8.70;97.30;;;;;;5038348;28;20041;-87
2022/11/25 05:49:54;;;;;;;0.55;0.20;;;8.70;97.30;;;;;;5039171;28;20049;-88
2022/11/25 05:52:22;;;;;;;0.63;0.20;;;8.80;97.30;;;;;;5054676;28;20411;-88
2022/11/25 05:54:55;;;;;;;0.65;0.20;;;8.80;97.30;;;;;;5054612;28;20486;-88
2022/11/25 05:57:27;;;;;;;0.70;0.20;;;8.70;97.30;;;;;;5038745;28;20044;-86
2022/11/25 06:00:03;;;;;;;1.08;0.30;;;8.70;97.30;;;;;;5026730;28;20064;-87
2022/11/25 06:02:50;;;;;;;1.70;0.30;;;8.80;97.40;;;;;;5042494;28;20128;-87
2022/11/25 06:05:21;;;;;;;0.45;0.30;;;8.80;97.40;;;;;;5038936;28;20103;-87
2022/11/25 06:07:50;;;;;;;1.00;0.30;;;8.80;97.40;;;;;;5038226;28;20049;-87
2022/11/25 06:10:18;;;;;;;2.55;0.40;;;8.80;97.40;;;;;;5037919;28;20056;-88
2022/11/25 06:12:48;;;;;;;0.40;0.20;;;8.80;97.40;;;;;;5037980;28;20041;-87
2022/11/25 06:15:15;;;;;;;0.80;0.30;;;8.70;97.40;;;;;;5054028;28;20068;-87
2022/11/25 06:17:49;;;;;;;0.93;0.20;;;8.70;97.40;;;;;;5037999;28;20091;-87
2022/11/25 06:20:21;;;;;;;1.45;0.30;;;8.70;97.40;;;;;;5054007;28;20041;-87
2022/11/25 06:22:50;;;;;;;0.68;0.30;;;8.70;97.50;;;;;;5037460;28;20067;-87
2022/11/25 06:25:25;;;;;;;2.17;0.40;;;8.70;97.50;;;;;;5038218;28;20048;-87
2022/11/25 06:27:53;;;;;;;1.38;0.45;;;8.70;97.50;;;;;;5037294;28;20156;-87
2022/11/25 06:30:41;;;;;;;2.20;0.30;;;8.70;97.50;;;;;;5026934;28;20052;-88
2022/11/25 06:33:38;;;;;;;1.30;0.30;;;8.70;97.50;;;;;;5048798;28;20041;-88
2022/11/25 06:36:15;;;;;;;1.10;0.30;;;8.70;97.40;;;;;;5054029;28;20410;-87
2022/11/25 06:38:53;;;;;;;2.50;0.50;;;8.70;97.40;;;;;;5037020;28;20047;-87
2022/11/25 06:41:21;;;;;;;0.88;0.20;;;8.70;97.40;;;;;;5035058;28;20049;-87
2022/11/25 06:43:49;;;;;;;1.40;0.30;;;8.60;97.70;;;;;;5036834;28;20052;-90
2022/11/25 06:46:19;;;;;;;1.27;0.20;;;8.60;97.50;;;;;;5004716;28;20045;-87
2022/11/25 06:48:56;;;;;;;0.50;0.17;;;8.60;97.50;;;;;;5001905;28;20045;-87
2022/11/25 06:51:25;;;;;;;1.55;0.30;;;8.50;97.60;;;;;;5028698;28;20049;-86
2022/11/25 06:53:55;;;;;;;0.30;0.10;;;8.50;97.60;;;;;;5048845;28;20136;-86
2022/11/25 06:56:25;;;;;;;0.40;0.20;;;8.40;97.70;;;;;;5036677;28;20110;-86
2022/11/25 06:58:53;;;;;;;0.38;0.10;;;8.30;97.70;;;;;;5036467;28;20049;-85
2022/11/25 07:01:28;;;;;;;0.80;0.20;;;8.20;97.70;;;;;;5036533;28;20431;-85
2022/11/25 07:04:00;;;;;;;1.30;0.30;;;8.10;97.80;;;;;;5036130;28;20041;-86
2022/11/25 07:06:28;;;;;;;0.47;0.20;;;8.00;97.80;;;;;;5035984;28;20053;-86
2022/11/25 07:08:56;;;;;;;0.85;0.20;;;8.00;97.90;;;;;;5040120;28;20053;-86
2022/11/25 07:11:35;;;;;;;0.40;0.10;;;7.90;98.00;;;;;;5051125;28;20140;-86
2022/11/25 07:14:06;;;;;;;0.47;0.20;;;7.90;98.00;;;;;;5052429;28;20045;-86
2022/11/25 07:16:33;;;;;;;1.25;0.10;;;7.90;98.00;;;;;;5052572;28;20041;-86
2022/11/25 07:19:02;;;;;;;0.30;0.10;;;7.80;98.00;;;;;;5035891;28;20051;-86
2022/11/25 07:21:31;;;;;;;1.27;0.17;;;7.80;98.00;;;;;;5036300;28;20057;-85
2022/11/25 07:24:00;;;;;;;1.23;0.20;;;7.80;98.10;;;;;;5036159;28;20048;-86
2022/11/25 07:26:30;;;;;;;0.85;0.20;;;7.70;98.10;;;;;;5055781;28;20045;-86
2022/11/25 07:28:59;;;;;;;0.85;0.28;;;7.70;98.10;;;;;;5036129;28;20044;-86
2022/11/25 07:31:32;;;;;;;0.70;0.20;;;7.70;98.10;;;;;;5035640;28;20056;-86
2022/11/25 07:34:01;;;;;;;0.82;0.15;;;7.60;98.10;;;;;;5045682;28;20048;-86
2022/11/25 07:36:30;;;;;;;1.55;0.40;;;7.60;98.20;;;;;;5047749;28;20075;-86
2022/11/25 07:39:00;;;;;;;0.25;0.10;;;7.50;98.20;;;;;;5023477;28;20067;-86
2022/11/25 07:41:30;;;;;;;1.13;0.40;;;7.50;98.20;;;;;;5035882;28;20072;-86
2022/11/25 07:44:01;;;;;;;1.35;0.22;;;7.50;98.30;;;;;;5035131;28;20044;-87
2022/11/25 07:46:33;;;;;;;1.73;0.20;;;7.50;98.30;;;;;;5035906;28;20450;-86
2022/11/25 07:49:24;;;;;;;0.85;0.30;;;7.40;98.20;;;;;;5038707;28;20489;-86
2022/11/25 07:51:54;;;;;;;0.28;0.20;;;7.40;98.20;;;;;;5039665;28;20045;-86
2022/11/25 07:54:22;;;;;;;1.52;0.20;;;7.40;98.30;;;;;;5035380;28;20136;-86
2022/11/25 07:56:49;;;;;;;0.75;0.20;;;7.40;98.30;;;;;;5035819;28;20056;-85
2022/11/25 07:59:23;;;;;;;1.13;0.38;;;7.30;98.30;;;;;;5036445;28;20045;-87
2022/11/25 08:01:54;;;;;;;1.35;0.28;;;7.30;98.30;;;;;;5037767;28;20045;-87
2022/11/25 08:05:17;;;;;;;1.13;0.25;;;7.20;98.30;;;;;;5035659;28;20040;-91
2022/11/25 08:07:46;;;;;;;0.70;0.20;;;7.30;98.40;;;;;;4997578;28;20104;-84
2022/11/25 08:10:13;;;;;;;0.93;0.30;;;7.20;98.40;;;;;;5035751;28;20052;-84
2022/11/25 08:12:42;;;;;;;0.45;0.17;;;7.20;98.40;;;;;;5019670;28;20052;-85
2022/11/25 08:15:28;;;;;;;1.20;0.30;;;7.20;98.40;;;;;;5045597;28;20407;-87
2022/11/25 08:18:13;;;;;;;0.30;0.20;;;7.20;98.30;;;;;;5037428;28;20116;-84
2022/11/25 08:20:40;;;;;;;0.50;0.20;;;7.20;98.40;;;;;;5035176;28;20136;-84
2022/11/25 08:23:08;;;;;;;0.77;0.20;;;7.20;98.40;;;;;;5051388;28;20108;-85
2022/11/25 08:25:42;;;;;;;0.55;0.20;;;7.20;98.40;;;;;;5035034;28;20140;-85
2022/11/25 08:28:18;;;;;;;1.05;0.40;;;7.30;98.40;;;;;;5035087;28;20139;-86
2022/11/25 08:30:47;;;;;;;3.72;0.55;;;7.30;98.40;;;;;;5045815;28;20048;-84
2022/11/25 08:33:14;;;;;;;2.20;0.40;;;7.40;98.40;;;;;;5034762;28;20045;-84
2022/11/25 08:35:41;;;;;;;1.60;0.32;;;7.40;98.30;;;;;;5051252;28;20560;-84
2022/11/25 08:38:12;;;;;;;3.63;0.52;;;7.50;98.30;;;;;;5034494;28;20094;-89
2022/11/25 08:40:45;;;;;;;2.17;0.30;;;7.50;98.20;;;;;;5034913;28;20048;-84
2022/11/25 08:43:12;;;;;;;2.45;0.40;;;7.50;98.20;;;;;;5034789;28;20103;-84
2022/11/25 08:45:40;;;;;;;1.27;0.50;;;7.60;98.20;;;;;;5035040;28;20968;-86
2022/11/25 08:48:19;;;;;;;;;;;;;;;;;;;;;
2022/11/25 08:51:16;;;;;;;;;;;;;;;;;;;;;
2022/11/25 08:54:05;;;;;;;1.67;0.47;;;7.60;98.20;;;;;;5051991;28;20045;-84
2022/11/25 08:56:35;;;;;;;1.95;0.35;;;7.60;98.20;;;;;;5036151;28;20044;-84
2022/11/25 08:59:09;;;;;;;2.75;0.50;;;7.70;98.20;;;;;;5038135;28;20040;-86
2022/11/25 09:01:46;;;;;;;1.08;0.43;;;7.70;98.20;;;;;;5054661;28;20122;-85
2022/11/25 09:04:26;;;;;;;5.85;0.90;;;7.70;98.20;;;;;;5054833;28;20045;-85
2022/11/25 09:06:58;;;;;;;3.30;1.33;;;7.70;98.20;;;;;;5021852;28;20072;-85
2022/11/25 09:09:37;;;;;;;2.63;0.63;;;7.80;98.20;;;;;;5038491;28;20040;-86
2022/11/25 09:12:05;;;;;;;2.45;1.00;;;7.80;98.20;;;;;;5037894;28;20060;-87
2022/11/25 09:14:35;;;;;;;7.78;2.17;;;7.90;98.20;;;;;;5038366;28;20069;-85
2022/11/25 09:17:15;;;;;;;6.10;1.50;;;7.90;98.20;;;;;;5054834;28;20451;-86
2022/11/25 09:19:47;;;;;;;4.95;1.75;;;8.00;98.20;;;;;;5038556;28;20040;-86
2022/11/25 09:22:14;;;;;;;3.63;1.40;;;8.00;98.20;;;;;;5054834;28;20048;-86
2022/11/25 09:24:47;;;;;;;3.42;1.20;;;8.00;98.10;;;;;;5038330;28;20384;-85
2022/11/25 09:27:14;;;;;;;;;;;8.10;98.20;;;;;;5037748;28;20045;-85
2022/11/25 09:29:47;;;;;;;4.20;1.50;;;8.00;98.20;;;;;;5038107;28;19920;-86
2022/11/25 09:32:16;;;;;;;5.85;1.80;;;8.10;98.20;;;;;;5037735;28;20045;-85
2022/11/25 09:34:46;;;;;;;5.30;1.90;;;8.10;98.20;;;;;;5037945;28;20075;-85
2022/11/25 09:37:15;;;;;;;4.68;1.73;;;8.20;98.20;;;;;;5054563;28;20068;-86
2022/11/25 09:39:45;;;;;;;4.57;1.38;;;8.20;98.20;;;;;;5038169;28;20063;-86
2022/11/25 09:49:37;;;;;;;2.47;1.20;;;8.30;98.10;;;;;;5054706;28;20052;-86
2022/11/25 09:52:44;;;;;;;4.05;1.05;;;8.30;98.10;;;;;;5037514;28;20049;-85
2022/11/25 09:55:25;;;;;;;3.03;1.35;;;8.30;98.10;;;;;;5031117;28;20497;-85
2022/11/25 09:58:25;;;;;;;4.35;1.75;;;8.40;98.20;;;;;;5053649;28;20060;-84
2022/11/25 10:00:56;;;;;;;3.33;1.20;;;8.50;98.10;;;;;;5037168;28;20556;-86
2022/11/25 10:03:37;;;;;;;7.07;1.67;;;8.50;98.10;;;;;;5037208;28;20491;-86
2022/11/25 10:06:05;;;;;;;6.78;2.20;;;8.50;98.10;;;;;;5050615;28;20053;-85
2022/11/25 10:08:49;;;;;;;4.35;1.70;;;8.60;98.10;;;;;;5031018;28;20068;-85
2022/11/25 10:11:56;;;;;;;5.97;1.27;;;8.60;98.00;;;;;;5039529;28;20061;-86
2022/11/25 10:14:47;;;;;;;8.52;1.33;;;8.70;98.00;;;;;;5049668;28;20521;-85
2022/11/25 10:17:48;;;;;;;5.60;2.00;;;8.70;98.00;;;;;;5060122;28;20140;-86
2022/11/25 10:20:38;;;;;;;6.32;2.22;;;8.80;98.00;;;;;;5030149;28;20495;-85
2022/11/25 10:23:24;;;;;;;6.32;1.95;;;8.80;97.90;;;;;;5038242;28;20051;-84
2022/11/25 10:26:05;;;;;;;5.63;1.60;;;8.80;97.90;;;;;;5049460;28;20116;-84
2022/11/25 10:28:35;;;;;;;5.13;1.52;;;8.90;97.90;;;;;;5036604;28;20053;-84
2022/11/25 10:31:36;;;;;;;7.03;2.53;;;8.90;97.90;;;;;;5045388;28;20140;-84
2022/11/25 10:34:18;;;;;;;6.05;2.22;;;8.90;97.90;;;;;;5052821;28;20521;-84
2022/11/25 10:37:15;;;;;;;6.55;2.33;;;9.00;97.80;;;;;;5037414;28;20517;-85
2022/11/25 10:39:44;;;;;;;8.05;2.85;;;9.00;97.80;;;;;;5036414;28;20091;-85
2022/11/25 10:42:26;;;;;;;6.72;1.77;;;9.00;97.70;;;;;;5052849;28;20045;-84
2022/11/25 10:44:56;;;;;;;5.80;2.35;;;9.10;97.70;;;;;;5036612;28;20434;-85
2022/11/25 10:48:03;;;;;;;5.63;1.98;;;9.10;97.60;;;;;;5036371;28;20041;-84
2022/11/25 10:50:50;;;;;;;7.53;2.22;;;9.10;97.60;;;;;;5048748;28;20453;-90
2022/11/25 10:53:25;;;;;;;4.53;1.67;;;9.10;97.60;;;;;;5038296;28;20142;-86
2022/11/25 10:56:15;;;;;;;4.28;1.52;;;9.10;97.60;;;;;;5037523;28;20049;-89
2022/11/25 10:58:56;;;;;;;5.32;1.25;;;9.20;97.60;;;;;;5037890;28;20044;-86
2022/11/25 11:01:26;;;;;;;6.10;1.63;;;9.20;97.60;;;;;;5040185;28;20137;-86
2022/11/25 11:04:17;;;;;;;6.57;2.08;;;9.20;97.60;;;;;;5022568;28;20094;-87
2022/11/25 11:06:47;;;;;;;7.78;2.83;;;9.30;97.60;;;;;;5024835;28;20132;-85
2022/11/25 11:09:38;;;;;;;7.07;2.33;;;9.30;97.40;;;;;;5035839;28;20044;-87
2022/11/25 11:12:27;;;;;;;6.03;2.10;;;9.40;97.30;;;;;;5049438;28;20497;-83
2022/11/25 11:15:18;;;;;;;5.53;1.75;;;9.40;97.20;;;;;;5051761;28;20037;-84
2022/11/25 11:17:57;;;;;;;6.82;2.65;;;9.40;97.30;;;;;;5052409;28;20103;-84
2022/11/25 11:20:29;;;;;;;5.15;2.22;;;9.40;97.30;;;;;;5035109;28;20051;-86
2022/11/25 11:23:18;;;;;;;5.68;1.60;;;9.40;97.20;;;;;;5036667;28;20132;-85
2022/11/25 11:26:09;;;;;;;3.42;1.50;;;9.50;97.30;;;;;;5051856;28;20041;-86
2022/11/25 11:28:47;;;;;;;7.30;2.60;;;9.50;97.20;;;;;;5036674;28;20049;-86
2022/11/25 11:31:38;;;;;;;4.57;1.70;;;9.60;97.10;;;;;;5019337;28;20041;-85
2022/11/25 11:34:46;;;;;;;3.92;1.75;;;9.70;97.00;;;;;;5021085;28;20052;-86
2022/11/25 11:37:57;;;;;;;8.10;2.05;;;9.70;96.90;;;;;;5039575;28;20051;-87
2022/11/25 11:40:36;;;;;;;5.63;1.90;;;9.80;96.80;;;;;;4975903;28;20144;-86
2022/11/25 11:43:45;;;;;;;8.07;1.80;;;9.80;96.80;;;;;;4959939;28;20104;-85
2022/11/25 11:46:45;;;;;;;5.40;2.13;;;9.90;96.70;;;;;;5027117;28;20128;-85
2022/11/25 11:49:57;;;;;;;6.57;1.90;;;10.00;96.60;;;;;;5034792;28;20296;-87
2022/11/25 11:52:54;;;;;;;5.27;1.07;;;10.20;96.50;;;;;;5035172;28;20076;-86
2022/11/25 11:55:55;;;;;;;7.07;1.63;;;10.30;96.40;;;;;;5050968;28;20044;-87
2022/11/25 11:59:09;;;;;;;5.93;2.10;;;10.40;96.10;;;;;;5028611;28;20037;-85
2022/11/25 12:02:15;;;;;;;4.10;1.38;;;10.50;96.00;;;;;;5018616;28;20046;-87
2022/11/25 12:05:10;;;;;;;5.20;1.35;;;10.50;96.00;;;;;;5021969;28;20111;-91
2022/11/25 12:08:15;;;;;;;10.40;2.15;;;10.60;95.80;;;;;;5049669;28;20114;-86
2022/11/25 12:10:55;;;;;;;9.02;2.42;;;10.70;95.80;;;;;;5051347;28;20049;-85
2022/11/25 12:14:04;;;;;;;8.02;2.20;;;10.70;95.40;;;;;;5060865;28;20034;-89
2022/11/25 12:17:05;;;;;;;9.60;2.83;;;10.80;95.20;;;;;;5040746;28;20111;-89
2022/11/25 12:23:14;;;;;;;6.43;2.35;;;10.80;95.20;;;;;;5031491;28;20041;-86
2022/11/25 12:25:43;;;;;;;5.82;1.65;;;10.80;95.20;;;;;;5042397;28;20399;-84
2022/11/25 12:28:23;;;;;;;10.50;2.08;;;10.80;94.90;;;;;;5051647;28;20041;-85
2022/11/25 12:30:56;;;;;;;6.78;1.60;;;10.90;94.90;;;;;;5037444;28;20593;-87
2022/11/25 12:33:43;;;;;;;8.63;1.60;;;10.90;95.00;;;;;;5040275;28;20077;-85
2022/11/25 12:36:19;;;;;;;8.23;2.00;;;10.90;94.90;;;;;;5056267;28;20153;-85
2022/11/25 12:38:53;;;;;;;6.28;1.52;;;10.90;94.60;;;;;;5052620;28;20487;-84
2022/11/25 12:41:56;;;;;;;6.93;2.08;;;10.90;94.60;;;;;;5038859;28;20103;-83
2022/11/25 12:44:34;;;;;;;4.82;1.48;;;10.80;94.50;;;;;;5039081;28;20037;-86
2022/11/25 12:47:11;;;;;;;8.32;1.60;;;10.80;94.50;;;;;;5057655;28;20047;-89
2022/11/25 12:49:44;;;;;;;7.75;1.70;;;10.80;94.60;;;;;;5063862;28;20048;-88
2022/11/25 12:52:37;;;;;;;7.63;1.90;;;10.80;94.60;;;;;;5051734;28;20498;-89
2022/11/25 12:55:12;;;;;;;11.27;1.73;;;11.00;94.50;;;;;;5039141;28;20056;-85
2022/11/25 12:58:19;;;;;;;5.03;1.63;;;11.00;94.40;;;;;;5038779;28;20050;-90
2022/11/25 13:01:20;;;;;;;4.82;1.92;;;11.00;94.40;;;;;;5039837;28;20060;-88
2022/11/25 13:03:52;;;;;;;;;;;11.10;94.30;;;;;;5055968;28;20151;-88
2022/11/25 13:06:30;;;;;;;5.18;1.38;;;11.10;94.40;;;;;;5037462;28;19925;-87
2022/11/25 13:09:27;;;;;;;5.70;1.35;;;11.10;94.30;;;;;;5039417;28;20059;-87
2022/11/25 13:12:03;;;;;;;6.28;1.30;;;11.20;94.20;;;;;;5038605;28;20041;-88
2022/11/25 13:15:05;;;;;;;5.13;1.33;;;11.20;94.10;;;;;;5055608;28;20124;-89
2022/11/25 13:17:39;;;;;;;8.10;1.20;;;11.30;94.20;;;;;;5038955;28;20459;-86
2022/11/25 13:20:25;;;;;;;3.63;0.98;;;11.30;94.00;;;;;;5041078;28;20137;-85
2022/11/25 13:23:06;;;;;;;5.93;1.50;;;11.30;94.00;;;;;;5038487;28;20052;-89
2022/11/25 13:25:39;;;;;;;6.10;2.13;;;11.30;93.70;;;;;;5038477;28;20052;-87
2022/11/25 13:28:27;;;;;;;6.47;1.45;;;11.30;93.80;;;;;;5054915;28;20052;-88
2022/11/25 13:31:15;;;;;;;7.28;1.75;;;11.40;93.70;;;;;;5038096;28;20051;-91
2022/11/25 13:33:42;;;;;;;5.85;1.33;;;11.40;93.70;;;;;;5039315;28;20049;-91
2022/11/25 13:36:42;;;;;;;9.32;1.35;;;11.40;93.60;;;;;;5036433;28;20119;-91
2022/11/25 13:39:18;;;;;;;10.43;1.70;;;11.40;93.60;;;;;;5034023;28;20052;-89
2022/11/25 13:41:59;;;;;;;6.28;1.10;;;11.30;93.50;;;;;;5054786;28;20071;-89
2022/11/25 13:44:33;;;;;;;6.22;1.45;;;11.30;93.60;;;;;;5037014;28;20051;-89
2022/11/25 13:51:19;;;;;;;6.25;1.30;;;11.30;93.70;;;;;;5044777;28;20052;-88
2022/11/25 13:53:55;;;;;;;6.75;1.10;;;11.30;93.70;;;;;;5038884;28;20045;-88
2022/11/25 13:56:30;;;;;;;5.25;1.45;;;11.20;93.70;;;;;;5041984;28;20449;-82
2022/11/25 13:59:19;;;;;;;5.22;1.23;;;11.20;93.80;;;;;;5053579;28;20410;-82
2022/11/25 14:01:46;;;;;;;5.10;1.27;;;11.20;93.90;;;;;;5053489;28;20037;-82
2022/11/25 14:04:15;;;;;;;4.57;1.27;;;11.10;94.00;;;;;;5036873;28;20037;-84
2022/11/25 14:07:06;;;;;;;6.88;1.92;;;11.10;94.00;;;;;;5033323;28;20507;-90